Aviation Digital Data Service (ADDS)

Output produced by TAFs form (2352 UTC 18 July 2018)
found at http://www.aviationweather.gov/adds/tafs/
 
RJFU 182300Z 16003KT 130V200 6000 FEW020 29/25 Q1010
TAF RJFU 182306Z 1900/2006 33010KT 9999 FEW035 
     BECMG 1912/1915 15006KT 
     BECMG 2000/2003 30007KT